createdAt,value
2023-02-07T00:00:22.439Z,2.23
2023-02-07T00:01:22.424Z,2.23
2023-02-07T00:02:22.512Z,2.23
2023-02-07T00:03:22.415Z,2.23
2023-02-07T00:04:22.417Z,2.26
2023-02-07T00:05:22.369Z,2.26
2023-02-07T00:06:22.405Z,2.27
2023-02-07T00:07:22.373Z,2.27
2023-02-07T00:08:22.385Z,2.26
2023-02-07T00:09:22.342Z,2.22
2023-02-07T00:10:22.343Z,2.20
2023-02-07T00:11:22.323Z,2.19
2023-02-07T00:12:22.334Z,2.19
2023-02-07T00:13:22.299Z,2.19
2023-02-07T00:14:22.283Z,2.19
2023-02-07T00:15:22.272Z,2.17
2023-02-07T00:16:22.315Z,2.15
2023-02-07T00:17:23.193Z,2.16
2023-02-07T00:18:22.252Z,2.19
2023-02-07T00:19:22.204Z,2.17
2023-02-07T00:20:22.222Z,2.17
2023-02-07T00:21:22.181Z,2.17
2023-02-07T00:22:22.206Z,2.17
2023-02-07T00:23:22.186Z,2.17
2023-02-07T00:24:22.175Z,2.17
2023-02-07T00:25:22.140Z,2.17
2023-02-07T00:26:22.177Z,2.17
2023-02-07T00:27:22.141Z,2.19
2023-02-07T00:28:22.244Z,2.19
2023-02-07T00:29:22.096Z,2.20
2023-02-07T00:30:22.136Z,2.23
2023-02-07T00:31:22.275Z,2.26
2023-02-07T00:32:22.116Z,2.23
2023-02-07T00:33:22.051Z,2.22
2023-02-07T00:34:22.096Z,2.23
2023-02-07T00:35:22.035Z,2.26
2023-02-07T00:36:22.069Z,2.27
2023-02-07T00:37:22.028Z,2.28
2023-02-07T00:38:22.022Z,2.28
2023-02-07T00:39:21.981Z,2.28
2023-02-07T00:40:21.994Z,2.30
2023-02-07T00:41:21.959Z,2.26
2023-02-07T00:42:22.652Z,2.26
2023-02-07T00:43:29.639Z,2.23
2023-02-07T00:44:22.977Z,2.28
2023-02-07T00:45:22.658Z,2.30
2023-02-07T00:46:21.983Z,2.33
2023-02-07T00:47:21.904Z,2.34
2023-02-07T00:48:21.924Z,2.35
2023-02-07T00:49:21.904Z,2.37
2023-02-07T00:50:23.359Z,2.33
2023-02-07T00:51:23.308Z,2.28
2023-02-07T00:52:21.884Z,2.30
2023-02-07T00:53:21.825Z,2.31
2023-02-07T00:54:21.857Z,2.33
2023-02-07T00:55:22.766Z,2.33
2023-02-07T00:56:21.893Z,2.31
2023-02-07T00:57:21.812Z,2.30
2023-02-07T00:58:22.051Z,2.30
2023-02-07T00:59:22.507Z,2.28
2023-02-07T01:00:21.785Z,2.27
2023-02-07T01:01:21.756Z,2.28
2023-02-07T01:02:21.758Z,2.28
2023-02-07T01:03:21.741Z,2.26
2023-02-07T01:04:21.775Z,2.23
2023-02-07T01:05:22.669Z,2.19
2023-02-07T01:06:21.728Z,2.16
2023-02-07T01:07:21.701Z,2.15
2023-02-07T01:08:21.702Z,2.13
2023-02-07T01:09:21.663Z,2.13
2023-02-07T01:10:21.685Z,2.16
2023-02-07T01:11:21.650Z,2.16
2023-02-07T01:12:21.673Z,2.17
2023-02-07T01:13:21.619Z,2.17
2023-02-07T01:14:21.635Z,2.20
2023-02-07T01:15:21.599Z,2.19
2023-02-07T01:16:21.615Z,2.20
2023-02-07T01:17:21.593Z,2.20
2023-02-07T01:18:21.597Z,2.23
2023-02-07T01:19:21.577Z,2.22
2023-02-07T01:20:21.570Z,2.20
2023-02-07T01:21:21.562Z,2.20
2023-02-07T01:22:21.558Z,2.19
2023-02-07T01:23:21.513Z,2.19
2023-02-07T01:24:21.653Z,2.16
2023-02-07T01:25:21.502Z,2.15
2023-02-07T01:26:21.503Z,2.13
2023-02-07T01:27:21.470Z,2.10
2023-02-07T01:28:21.520Z,2.04
2023-02-07T01:29:21.474Z,2.01
2023-02-07T01:30:21.471Z,2.01
2023-02-07T01:31:21.580Z,1.99
2023-02-07T01:32:21.613Z,1.98
2023-02-07T01:33:21.474Z,1.98
2023-02-07T01:34:21.420Z,1.98
2023-02-07T01:35:21.383Z,1.99
2023-02-07T01:36:21.402Z,1.94
2023-02-07T01:37:21.361Z,1.94
2023-02-07T01:38:21.413Z,1.93
2023-02-07T01:39:21.338Z,1.91
2023-02-07T01:40:21.368Z,1.89
2023-02-07T01:41:21.326Z,1.87
2023-02-07T01:42:21.333Z,1.85
2023-02-07T01:43:21.303Z,1.89
2023-02-07T01:44:21.308Z,1.83
2023-02-07T01:45:21.278Z,1.87
2023-02-07T01:46:21.317Z,1.83
2023-02-07T01:47:21.260Z,1.85
2023-02-07T01:48:21.276Z,1.82
2023-02-07T01:49:21.244Z,1.79
2023-02-07T01:50:21.230Z,1.73
2023-02-07T01:51:21.204Z,1.71
2023-02-07T01:52:21.210Z,1.69
2023-02-07T01:53:21.194Z,1.68
2023-02-07T01:54:21.201Z,1.68
2023-02-07T01:55:21.164Z,1.64
2023-02-07T01:56:31.258Z,1.64
2023-02-07T01:57:22.141Z,1.62
2023-02-07T01:58:21.169Z,1.61
2023-02-07T01:59:21.123Z,1.58
2023-02-07T02:00:23.241Z,1.57
2023-02-07T02:01:21.186Z,1.55
2023-02-07T02:02:28.189Z,1.55
2023-02-07T02:03:21.082Z,1.54
2023-02-07T02:04:21.099Z,1.51
2023-02-07T02:05:21.054Z,1.54
2023-02-07T02:06:21.069Z,1.50
2023-02-07T02:07:21.053Z,1.50
2023-02-07T02:08:21.036Z,1.47
2023-02-07T02:09:21.029Z,1.46
2023-02-07T02:10:21.031Z,1.44
2023-02-07T02:11:20.999Z,1.43
2023-02-07T02:12:21.063Z,1.40
2023-02-07T02:13:20.976Z,1.40
2023-02-07T02:14:21.029Z,1.39
2023-02-07T02:15:20.957Z,1.37
2023-02-07T02:16:20.980Z,1.34
2023-02-07T02:17:20.917Z,1.36
2023-02-07T02:18:20.929Z,1.36
2023-02-07T02:19:20.937Z,1.34
2023-02-07T02:20:20.976Z,1.33
2023-02-07T02:21:20.888Z,1.33
2023-02-07T02:22:20.880Z,1.32
2023-02-07T02:23:20.852Z,1.29
2023-02-07T02:24:20.895Z,1.28
2023-02-07T02:25:20.841Z,1.26
2023-02-07T02:26:20.854Z,1.26
2023-02-07T02:27:20.811Z,1.25
2023-02-07T02:28:21.057Z,1.22
2023-02-07T02:29:20.814Z,1.21
2023-02-07T02:30:20.826Z,1.19
2023-02-07T02:31:20.807Z,1.18
2023-02-07T02:32:20.795Z,1.14
2023-02-07T02:33:20.756Z,1.08
2023-02-07T02:34:20.763Z,1.07
2023-02-07T02:35:20.772Z,1.04
2023-02-07T02:36:20.732Z,0.98
2023-02-07T02:37:20.720Z,0.94
2023-02-07T02:38:20.732Z,0.92
2023-02-07T02:39:20.698Z,0.86
2023-02-07T02:40:20.756Z,0.85
2023-02-07T02:41:20.674Z,0.82
2023-02-07T02:42:20.653Z,0.78
2023-02-07T02:43:20.643Z,0.78
2023-02-07T02:44:20.658Z,0.75
2023-02-07T02:45:20.598Z,0.71
2023-02-07T02:46:20.665Z,0.71
2023-02-07T02:47:20.601Z,0.68
2023-02-07T02:48:20.642Z,0.68
2023-02-07T02:49:20.614Z,0.67
2023-02-07T02:50:20.591Z,0.68
2023-02-07T02:51:20.545Z,0.68
2023-02-07T02:52:20.569Z,0.65
2023-02-07T02:53:20.570Z,0.68
2023-02-07T02:54:20.539Z,0.71
2023-02-07T02:55:20.537Z,0.71
2023-02-07T02:56:20.536Z,0.72
2023-02-07T02:57:20.511Z,0.72
2023-02-07T02:58:20.498Z,0.68
2023-02-07T02:59:20.460Z,0.68
2023-02-07T03:00:20.477Z,0.65
2023-02-07T03:01:20.468Z,0.65
2023-02-07T03:02:20.477Z,0.64
2023-02-07T03:03:20.440Z,0.64
2023-02-07T03:04:20.437Z,0.62
2023-02-07T03:05:20.509Z,0.61
2023-02-07T03:06:20.424Z,0.61
2023-02-07T03:07:21.906Z,0.57
2023-02-07T03:08:20.404Z,0.52
2023-02-07T03:09:20.364Z,0.48
2023-02-07T03:10:20.381Z,0.45
2023-02-07T03:11:20.359Z,0.39
2023-02-07T03:12:20.367Z,0.41
2023-02-07T03:13:20.307Z,0.39
2023-02-07T03:14:20.344Z,0.38
2023-02-07T03:15:20.304Z,0.39
2023-02-07T03:16:20.341Z,0.41
2023-02-07T03:17:20.299Z,0.42
2023-02-07T03:18:20.293Z,0.45
2023-02-07T03:19:20.289Z,0.46
2023-02-07T03:20:20.310Z,0.48
2023-02-07T03:21:20.256Z,0.51
2023-02-07T03:22:20.287Z,0.51
2023-02-07T03:23:20.217Z,0.49
2023-02-07T03:24:20.206Z,0.46
2023-02-07T03:25:20.183Z,0.43
2023-02-07T03:26:20.196Z,0.41
2023-02-07T03:27:20.170Z,0.39
2023-02-07T03:28:20.295Z,0.34
2023-02-07T03:29:20.180Z,0.31
2023-02-07T03:30:20.150Z,0.27
2023-02-07T03:31:20.131Z,0.27
2023-02-07T03:32:20.123Z,0.24
2023-02-07T03:33:20.101Z,0.24
2023-02-07T03:34:20.103Z,0.24
2023-02-07T03:35:20.081Z,0.24
2023-02-07T03:36:20.094Z,0.23
2023-02-07T03:37:20.040Z,0.24
2023-02-07T03:38:20.077Z,0.23
2023-02-07T03:39:20.023Z,0.23
2023-02-07T03:40:20.084Z,0.27
2023-02-07T03:41:20.044Z,0.25
2023-02-07T03:42:19.981Z,0.27
2023-02-07T03:43:20.036Z,0.25
2023-02-07T03:44:20.024Z,0.24
2023-02-07T03:45:19.980Z,0.28
2023-02-07T03:46:20.003Z,0.25
2023-02-07T03:47:19.967Z,0.27
2023-02-07T03:48:19.918Z,0.25
2023-02-07T03:49:19.956Z,0.24
2023-02-07T03:50:19.910Z,0.23
2023-02-07T03:51:19.916Z,0.23
2023-02-07T03:52:19.923Z,0.21
2023-02-07T03:53:20.001Z,0.21
2023-02-07T03:54:19.869Z,0.21
2023-02-07T03:55:19.882Z,0.23
2023-02-07T03:56:19.924Z,0.24
2023-02-07T03:57:19.884Z,0.24
2023-02-07T03:58:19.801Z,0.24
2023-02-07T03:59:19.854Z,0.24
2023-02-07T04:00:19.857Z,0.21
2023-02-07T04:01:19.924Z,0.18
2023-02-07T04:02:19.867Z,0.13
2023-02-07T04:03:19.806Z,0.12
2023-02-07T04:04:19.759Z,0.09
2023-02-07T04:05:19.787Z,0.07
2023-02-07T04:06:19.747Z,0.07
2023-02-07T04:07:19.745Z,0.05
2023-02-07T04:08:19.709Z,0.05
2023-02-07T04:09:19.759Z,0.03
2023-02-07T04:10:19.688Z,0.02
2023-02-07T04:11:19.723Z,0.00
2023-02-07T04:12:19.692Z,0.02
2023-02-07T04:13:19.681Z,0.00
2023-02-07T04:14:19.663Z,0.00
2023-02-07T04:15:19.655Z,0.00
2023-02-07T04:16:19.693Z,0.02
2023-02-07T04:17:19.635Z,0.00
2023-02-07T04:18:19.657Z,-0.01
2023-02-07T04:19:19.621Z,0.00
2023-02-07T04:20:19.607Z,0.02
2023-02-07T04:21:19.634Z,0.00
2023-02-07T04:22:19.550Z,0.02
2023-02-07T04:23:19.589Z,0.03
2023-02-07T04:24:19.616Z,0.03
2023-02-07T04:25:19.568Z,0.02
2023-02-07T04:26:19.528Z,-0.01
2023-02-07T04:27:19.569Z,-0.01
2023-02-07T04:28:19.556Z,-0.05
2023-02-07T04:29:19.519Z,-0.11
2023-02-07T04:30:19.569Z,-0.13
2023-02-07T04:31:19.532Z,-0.13
2023-02-07T04:32:19.456Z,-0.16
2023-02-07T04:33:19.459Z,-0.16
2023-02-07T04:34:19.423Z,-0.13
2023-02-07T04:35:19.523Z,-0.12
2023-02-07T04:36:19.435Z,-0.13
2023-02-07T04:37:19.473Z,-0.12
2023-02-07T04:38:19.397Z,-0.15
2023-02-07T04:39:19.427Z,-0.19
2023-02-07T04:40:19.374Z,-0.19
2023-02-07T04:41:19.380Z,-0.24
2023-02-07T04:42:19.339Z,-0.27
2023-02-07T04:43:19.382Z,-0.26
2023-02-07T04:44:19.316Z,-0.29
2023-02-07T04:45:19.361Z,-0.27
2023-02-07T04:46:19.293Z,-0.29
2023-02-07T04:47:19.329Z,-0.26
2023-02-07T04:48:19.295Z,-0.27
2023-02-07T04:49:19.389Z,-0.27
2023-02-07T04:50:19.263Z,-0.27
2023-02-07T04:51:19.278Z,-0.26
2023-02-07T04:52:19.226Z,-0.26
2023-02-07T04:53:19.247Z,-0.24
2023-02-07T04:54:19.463Z,-0.23
2023-02-07T04:55:19.247Z,-0.26
2023-02-07T04:56:19.219Z,-0.26
2023-02-07T04:57:19.206Z,-0.26
2023-02-07T04:58:19.184Z,-0.29
2023-02-07T04:59:19.189Z,-0.30
2023-02-07T05:00:19.154Z,-0.30
2023-02-07T05:01:19.198Z,-0.33
2023-02-07T05:02:19.175Z,-0.36
2023-02-07T05:03:19.156Z,-0.41
2023-02-07T05:04:19.243Z,-0.44
2023-02-07T05:05:19.165Z,-0.47
2023-02-07T05:06:19.160Z,-0.52
2023-02-07T05:07:19.106Z,-0.54
2023-02-07T05:08:19.058Z,-0.55
2023-02-07T05:09:19.083Z,-0.57
2023-02-07T05:10:20.035Z,-0.59
2023-02-07T05:11:19.052Z,-0.60
2023-02-07T05:12:19.087Z,-0.60
2023-02-07T05:13:19.071Z,-0.60
2023-02-07T05:14:19.023Z,-0.62
2023-02-07T05:15:19.046Z,-0.62
2023-02-07T05:16:19.081Z,-0.65
2023-02-07T05:17:18.992Z,-0.62
2023-02-07T05:18:18.961Z,-0.62
2023-02-07T05:19:18.996Z,-0.65
2023-02-07T05:20:18.943Z,-0.65
2023-02-07T05:21:18.969Z,-0.69
2023-02-07T05:22:18.920Z,-0.72
2023-02-07T05:23:18.954Z,-0.70
2023-02-07T05:24:19.894Z,-0.78
2023-02-07T05:25:18.901Z,-0.87
2023-02-07T05:26:18.871Z,-1.02
2023-02-07T05:27:18.884Z,-1.03
2023-02-07T05:28:18.912Z,-1.02
2023-02-07T05:29:18.878Z,-0.99
2023-02-07T05:30:18.848Z,-0.94
2023-02-07T05:31:18.945Z,-0.89
2023-02-07T05:32:18.839Z,-0.83
2023-02-07T05:33:18.821Z,-0.84
2023-02-07T05:34:18.802Z,-0.81
2023-02-07T05:35:18.831Z,-0.80
2023-02-07T05:36:18.785Z,-0.80
2023-02-07T05:37:18.803Z,-0.84
2023-02-07T05:38:18.792Z,-0.86
2023-02-07T05:39:18.767Z,-0.84
2023-02-07T05:40:18.728Z,-0.92
2023-02-07T05:41:18.726Z,-1.05
2023-02-07T05:42:18.704Z,-1.06
2023-02-07T05:43:18.759Z,-1.07
2023-02-07T05:44:18.670Z,-1.07
2023-02-07T05:45:18.722Z,-1.07
2023-02-07T05:46:18.681Z,-1.02
2023-02-07T05:47:18.652Z,-1.03
2023-02-07T05:48:18.624Z,-1.03
2023-02-07T05:49:18.636Z,-0.99
2023-02-07T05:50:18.643Z,-0.97
2023-02-07T05:51:18.695Z,-1.00
2023-02-07T05:52:18.588Z,-1.07
2023-02-07T05:53:18.620Z,-1.15
2023-02-07T05:54:18.562Z,-1.18
2023-02-07T05:55:18.607Z,-1.20
2023-02-07T05:56:18.543Z,-1.18
2023-02-07T05:57:18.550Z,-1.15
2023-02-07T05:58:18.575Z,-1.13
2023-02-07T05:59:18.528Z,-1.09
2023-02-07T06:00:18.544Z,-1.07
2023-02-07T06:01:18.993Z,-1.00
2023-02-07T06:02:18.513Z,-0.97
2023-02-07T06:03:19.048Z,-0.95
2023-02-07T06:04:18.448Z,-0.92
2023-02-07T06:05:18.475Z,-0.95
2023-02-07T06:06:18.444Z,-0.91
2023-02-07T06:07:18.449Z,-0.89
2023-02-07T06:08:18.418Z,-0.83
2023-02-07T06:09:18.996Z,-0.81
2023-02-07T06:10:18.956Z,-0.80
2023-02-07T06:11:18.431Z,-0.78
2023-02-07T06:12:18.356Z,-0.80
2023-02-07T06:13:18.393Z,-0.80
2023-02-07T06:14:20.808Z,-0.83
2023-02-07T06:15:18.390Z,-0.83
2023-02-07T06:16:18.427Z,-0.84
2023-02-07T06:17:18.410Z,-0.87
2023-02-07T06:18:18.316Z,-0.87
2023-02-07T06:19:18.380Z,-0.87
2023-02-07T06:20:18.318Z,-0.87
2023-02-07T06:21:18.290Z,-0.89
2023-02-07T06:22:18.263Z,-0.89
2023-02-07T06:23:18.270Z,-0.91
2023-02-07T06:24:18.292Z,-0.91
2023-02-07T06:25:20.440Z,-0.94
2023-02-07T06:26:18.226Z,-0.94
2023-02-07T06:27:18.244Z,-0.91
2023-02-07T06:28:18.300Z,-0.83
2023-02-07T06:29:18.211Z,-0.84
2023-02-07T06:30:18.166Z,-0.86
2023-02-07T06:31:18.314Z,-0.91
2023-02-07T06:32:18.151Z,-0.92
2023-02-07T06:33:18.172Z,-0.99
2023-02-07T06:34:18.142Z,-0.97
2023-02-07T06:35:18.167Z,-1.03
2023-02-07T06:36:18.099Z,-1.05
2023-02-07T06:37:18.169Z,-1.06
2023-02-07T06:38:18.102Z,-1.06
2023-02-07T06:39:18.156Z,-1.09
2023-02-07T06:40:18.088Z,-1.10
2023-02-07T06:41:18.092Z,-1.15
2023-02-07T06:42:18.031Z,-1.20
2023-02-07T06:43:18.061Z,-1.21
2023-02-07T06:44:18.035Z,-1.23
2023-02-07T06:45:18.056Z,-1.23
2023-02-07T06:46:18.111Z,-1.23
2023-02-07T06:47:18.033Z,-1.20
2023-02-07T06:48:18.005Z,-1.18
2023-02-07T06:49:18.005Z,-1.18
2023-02-07T06:50:18.014Z,-1.17
2023-02-07T06:51:17.958Z,-1.15
2023-02-07T06:52:17.940Z,-1.20
2023-02-07T06:53:18.003Z,-1.20
2023-02-07T06:54:17.966Z,-1.21
2023-02-07T06:55:17.930Z,-1.21
2023-02-07T06:56:18.752Z,-1.23
2023-02-07T06:57:17.968Z,-1.24
2023-02-07T06:58:17.879Z,-1.24
2023-02-07T06:59:17.926Z,-1.25
2023-02-07T07:00:17.858Z,-1.25
2023-02-07T07:01:17.889Z,-1.25
2023-02-07T07:02:17.912Z,-1.24
2023-02-07T07:03:17.833Z,-1.23
2023-02-07T07:04:17.850Z,-1.20
2023-02-07T07:05:17.833Z,-1.18
2023-02-07T07:06:17.812Z,-1.17
2023-02-07T07:07:17.826Z,-1.15
2023-02-07T07:08:17.819Z,-1.13
2023-02-07T07:09:17.809Z,-1.15
2023-02-07T07:10:17.771Z,-1.12
2023-02-07T07:11:17.753Z,-1.13
2023-02-07T07:12:17.763Z,-1.13
2023-02-07T07:13:17.750Z,-1.17
2023-02-07T07:14:17.720Z,-1.18
2023-02-07T07:15:17.716Z,-1.21
2023-02-07T07:16:17.731Z,-1.21
2023-02-07T07:17:17.739Z,-1.23
2023-02-07T07:18:17.670Z,-1.25
2023-02-07T07:19:17.724Z,-1.27
2023-02-07T07:20:17.637Z,-1.24
2023-02-07T07:21:17.658Z,-1.24
2023-02-07T07:22:18.723Z,-1.23
2023-02-07T07:23:17.675Z,-1.23
2023-02-07T07:24:17.604Z,-1.18
2023-02-07T07:25:17.683Z,-1.20
2023-02-07T07:26:17.572Z,-1.18
2023-02-07T07:27:17.592Z,-1.20
2023-02-07T07:28:17.592Z,-1.17
2023-02-07T07:29:17.584Z,-1.15
2023-02-07T07:30:17.531Z,-1.13
2023-02-07T07:31:17.640Z,-1.12
2023-02-07T07:33:18.539Z,-1.09
2023-02-07T07:34:17.507Z,-1.05
2023-02-07T07:35:18.848Z,-1.00
2023-02-07T07:36:17.519Z,-1.00
2023-02-07T07:37:17.482Z,-0.99
2023-02-07T07:38:17.439Z,-0.97
2023-02-07T07:39:17.491Z,-0.92
2023-02-07T07:40:17.495Z,-0.89
2023-02-07T07:41:17.447Z,-0.89
2023-02-07T07:42:17.398Z,-0.84
2023-02-07T07:43:17.412Z,-0.81
2023-02-07T07:44:17.386Z,-0.78
2023-02-07T07:45:17.402Z,-0.73
2023-02-07T07:46:17.400Z,-0.72
2023-02-07T07:47:17.353Z,-0.69
2023-02-07T07:48:17.404Z,-0.63
2023-02-07T07:49:17.375Z,-0.63
2023-02-07T07:50:17.308Z,-0.57
2023-02-07T07:51:17.383Z,-0.54
2023-02-07T07:52:17.313Z,-0.50
2023-02-07T07:53:17.297Z,-0.47
2023-02-07T07:54:17.281Z,-0.42
2023-02-07T07:55:17.317Z,-0.37
2023-02-07T07:56:17.288Z,-0.36
2023-02-07T07:57:17.366Z,-0.33
2023-02-07T07:58:17.276Z,-0.31
2023-02-07T07:59:23.997Z,-0.29
2023-02-07T08:00:18.312Z,-0.27
2023-02-07T08:01:17.276Z,-0.26
2023-02-07T08:02:17.215Z,-0.22
2023-02-07T08:03:17.236Z,-0.19
2023-02-07T08:04:17.221Z,-0.19
2023-02-07T08:05:17.151Z,-0.16
2023-02-07T08:06:17.213Z,-0.15
2023-02-07T08:07:17.135Z,-0.13
2023-02-07T08:08:17.159Z,-0.11
2023-02-07T08:09:17.111Z,-0.09
2023-02-07T08:10:17.173Z,-0.05
2023-02-07T08:11:17.145Z,0.00
2023-02-07T08:12:17.122Z,0.03
2023-02-07T08:13:17.100Z,0.09
2023-02-07T08:14:17.162Z,0.12
2023-02-07T08:15:17.030Z,0.15
2023-02-07T08:16:17.097Z,0.16
2023-02-07T08:17:17.041Z,0.16
2023-02-07T08:18:17.052Z,0.20
2023-02-07T08:19:17.042Z,0.18
2023-02-07T08:20:17.024Z,0.15
2023-02-07T08:21:17.048Z,0.15
2023-02-07T08:22:17.001Z,0.13
2023-02-07T08:23:16.989Z,0.16
2023-02-07T08:24:17.034Z,0.15
2023-02-07T08:25:16.975Z,0.16
2023-02-07T08:26:16.946Z,0.20
2023-02-07T08:27:16.934Z,0.23
2023-02-07T08:28:17.054Z,0.30
2023-02-07T08:29:16.900Z,0.33
2023-02-07T08:30:16.954Z,0.38
2023-02-07T08:31:17.058Z,0.45
2023-02-07T08:32:16.905Z,0.48
2023-02-07T08:33:16.864Z,0.51
2023-02-07T08:34:16.860Z,0.53
2023-02-07T08:35:16.843Z,0.58
2023-02-07T08:36:16.878Z,0.62
2023-02-07T08:37:16.837Z,0.61
2023-02-07T08:38:16.916Z,0.67
2023-02-07T08:39:16.816Z,0.70
2023-02-07T08:40:16.841Z,0.76
2023-02-07T08:41:16.786Z,0.79
2023-02-07T08:42:16.776Z,0.79
2023-02-07T08:43:16.741Z,0.79
2023-02-07T08:44:16.754Z,0.80
2023-02-07T08:45:16.764Z,0.83
2023-02-07T08:46:16.784Z,0.82
2023-02-07T08:47:17.925Z,0.80
2023-02-07T08:48:16.708Z,0.80
2023-02-07T08:49:16.685Z,0.80
2023-02-07T08:50:16.713Z,0.80
2023-02-07T08:51:16.702Z,0.85
2023-02-07T08:52:16.686Z,0.85
2023-02-07T08:53:16.652Z,0.88
2023-02-07T08:54:16.644Z,0.89
2023-02-07T08:55:16.644Z,0.94
2023-02-07T08:56:16.666Z,0.96
2023-02-07T08:57:16.591Z,0.97
2023-02-07T08:58:16.646Z,0.97
2023-02-07T08:59:16.604Z,1.01
2023-02-07T09:00:16.593Z,1.03
2023-02-07T09:01:16.844Z,1.00
2023-02-07T09:02:16.590Z,1.06
2023-02-07T09:03:17.505Z,1.08
2023-02-07T09:04:16.578Z,1.08
2023-02-07T09:05:16.517Z,1.07
2023-02-07T09:06:16.521Z,1.08
2023-02-07T09:07:16.476Z,1.10
2023-02-07T09:08:16.514Z,1.12
2023-02-07T09:09:16.540Z,1.10
2023-02-07T09:10:16.680Z,1.14
2023-02-07T09:11:16.508Z,1.15
2023-02-07T09:12:16.456Z,1.18
2023-02-07T09:13:16.416Z,1.21
2023-02-07T09:14:16.445Z,1.25
2023-02-07T09:15:16.387Z,1.29
2023-02-07T09:16:16.467Z,1.29
2023-02-07T09:17:16.376Z,1.34
2023-02-07T09:18:16.409Z,1.37
2023-02-07T09:19:16.339Z,1.39
2023-02-07T09:20:16.404Z,1.40
2023-02-07T09:21:16.371Z,1.42
2023-02-07T09:22:16.363Z,1.44
2023-02-07T09:23:16.324Z,1.46
2023-02-07T09:24:17.270Z,1.50
2023-02-07T09:25:17.270Z,1.54
2023-02-07T09:26:16.304Z,1.52
2023-02-07T09:27:16.314Z,1.51
2023-02-07T09:28:16.359Z,1.46
2023-02-07T09:29:16.261Z,1.40
2023-02-07T09:30:16.250Z,1.37
2023-02-07T09:31:16.308Z,1.29
2023-02-07T09:32:16.230Z,1.26
2023-02-07T09:33:16.207Z,1.28
2023-02-07T09:34:16.225Z,1.32
2023-02-07T09:35:16.175Z,1.33
2023-02-07T09:36:16.342Z,1.36
2023-02-07T09:37:16.180Z,1.42
2023-02-07T09:38:16.241Z,1.46
2023-02-07T09:39:16.273Z,1.50
2023-02-07T09:40:16.157Z,1.51
2023-02-07T09:41:16.105Z,1.55
2023-02-07T09:42:16.154Z,1.57
2023-02-07T09:43:16.313Z,1.60
2023-02-07T09:44:17.257Z,1.60
2023-02-07T09:45:16.256Z,1.60
2023-02-07T09:46:16.192Z,1.65
2023-02-07T09:47:16.054Z,1.65
2023-02-07T09:48:16.081Z,1.68
2023-02-07T09:49:16.048Z,1.65
2023-02-07T09:50:16.074Z,1.65
2023-02-07T09:51:16.003Z,1.69
2023-02-07T09:52:16.026Z,1.71
2023-02-07T09:53:16.805Z,1.75
2023-02-07T09:54:15.981Z,1.79
2023-02-07T09:55:16.005Z,1.83
2023-02-07T09:56:15.965Z,1.89
2023-02-07T09:57:16.179Z,1.91
2023-02-07T09:58:15.971Z,1.91
2023-02-07T09:59:15.905Z,1.94
2023-02-07T10:00:15.937Z,2.01
2023-02-07T10:01:16.014Z,2.04
2023-02-07T10:02:16.874Z,2.06
2023-02-07T10:03:15.883Z,2.08
2023-02-07T10:04:15.878Z,2.12
2023-02-07T10:05:15.841Z,2.13
2023-02-07T10:06:18.551Z,2.15
2023-02-07T10:07:15.807Z,2.16
2023-02-07T10:08:15.854Z,2.16
2023-02-07T10:09:15.803Z,2.16
2023-02-07T10:10:15.835Z,2.16
2023-02-07T10:11:15.788Z,2.17
2023-02-07T10:12:15.824Z,2.13
2023-02-07T10:13:15.778Z,2.08
2023-02-07T10:14:15.762Z,2.04
2023-02-07T10:15:15.729Z,2.08
2023-02-07T10:16:15.738Z,2.10
2023-02-07T10:17:25.793Z,2.10
2023-02-07T10:18:16.732Z,2.10
2023-02-07T10:19:15.746Z,2.12
2023-02-07T10:20:15.762Z,2.10
2023-02-07T10:21:15.658Z,2.10
2023-02-07T10:22:15.680Z,2.13
2023-02-07T10:23:15.651Z,2.15
2023-02-07T10:24:15.661Z,2.15
2023-02-07T10:25:15.633Z,2.17
2023-02-07T10:26:15.667Z,2.17
2023-02-07T10:27:15.593Z,2.17
2023-02-07T10:28:15.689Z,2.19
2023-02-07T10:29:15.606Z,2.22
2023-02-07T10:30:15.591Z,2.26
2023-02-07T10:31:16.648Z,2.26
2023-02-07T10:32:15.559Z,2.28
2023-02-07T10:33:15.551Z,2.28
2023-02-07T10:34:15.605Z,2.23
2023-02-07T10:35:15.548Z,2.23
2023-02-07T10:36:15.560Z,2.22
2023-02-07T10:37:15.510Z,2.27
2023-02-07T10:38:15.533Z,2.30
2023-02-07T10:39:15.484Z,2.23
2023-02-07T10:40:15.505Z,2.23
2023-02-07T10:41:15.451Z,2.27
2023-02-07T10:42:15.496Z,2.27
2023-02-07T10:43:15.447Z,2.27
2023-02-07T10:44:15.449Z,2.30
2023-02-07T10:45:15.449Z,2.30
2023-02-07T10:46:15.576Z,2.31
2023-02-07T10:47:15.428Z,2.33
2023-02-07T10:48:15.448Z,2.31
2023-02-07T10:49:15.359Z,2.26
2023-02-07T10:50:18.685Z,2.27
2023-02-07T10:51:16.395Z,2.34
2023-02-07T10:52:15.382Z,2.37
2023-02-07T10:53:15.356Z,2.38
2023-02-07T10:54:15.327Z,2.40
2023-02-07T10:55:15.321Z,2.40
2023-02-07T10:56:15.320Z,2.35
2023-02-07T10:57:15.273Z,2.35
2023-02-07T10:58:22.844Z,2.34
2023-02-07T10:59:16.272Z,2.31
2023-02-07T11:00:15.277Z,2.34
2023-02-07T11:01:15.275Z,2.34
2023-02-07T11:02:16.260Z,2.41
2023-02-07T11:03:15.204Z,2.41
2023-02-07T11:04:15.212Z,2.31
2023-02-07T11:05:15.194Z,2.33
2023-02-07T11:06:15.207Z,2.34
2023-02-07T11:07:16.148Z,2.37
2023-02-07T11:08:15.173Z,2.38
2023-02-07T11:09:15.150Z,2.48
2023-02-07T11:10:15.164Z,2.52
2023-02-07T11:11:15.129Z,2.58
2023-02-07T11:12:15.132Z,2.61
2023-02-07T11:13:15.093Z,2.63
2023-02-07T11:14:15.092Z,2.67
2023-02-07T11:15:15.100Z,2.70
2023-02-07T11:16:15.101Z,2.73
2023-02-07T11:17:15.061Z,2.74
2023-02-07T11:18:15.057Z,2.76
2023-02-07T11:19:15.042Z,2.77
2023-02-07T11:20:15.089Z,2.79
2023-02-07T11:21:14.999Z,2.84
2023-02-07T11:22:15.014Z,2.87
2023-02-07T11:23:14.978Z,2.91
2023-02-07T11:24:14.977Z,2.94
2023-02-07T11:25:14.966Z,2.94
2023-02-07T11:26:14.973Z,2.95
2023-02-07T11:27:15.053Z,2.98
2023-02-07T11:28:15.026Z,3.02
2023-02-07T11:29:14.945Z,3.05
2023-02-07T11:30:15.918Z,3.06
2023-02-07T11:31:15.090Z,3.10
2023-02-07T11:32:14.899Z,3.09
2023-02-07T11:33:14.863Z,3.15
2023-02-07T11:34:14.913Z,3.15
2023-02-07T11:35:14.880Z,3.12
2023-02-07T11:36:15.846Z,3.10
2023-02-07T11:37:14.844Z,3.13
2023-02-07T11:38:14.865Z,3.16
2023-02-07T11:39:14.811Z,3.21
2023-02-07T11:40:14.818Z,3.27
2023-02-07T11:41:14.797Z,3.27
2023-02-07T11:42:14.829Z,3.31
2023-02-07T11:43:14.773Z,3.33
2023-02-07T11:44:14.817Z,3.33
2023-02-07T11:45:14.748Z,3.34
2023-02-07T11:46:14.811Z,3.36
2023-02-07T11:47:14.745Z,3.36
2023-02-07T11:48:14.732Z,3.39
2023-02-07T11:49:14.701Z,3.39
2023-02-07T11:50:14.701Z,3.40
2023-02-07T11:51:14.738Z,3.43
2023-02-07T11:52:14.698Z,3.47
2023-02-07T11:53:14.654Z,3.43
2023-02-07T11:54:14.671Z,3.42
2023-02-07T11:55:14.652Z,3.42
2023-02-07T11:56:14.643Z,3.43
2023-02-07T11:57:14.614Z,3.42
2023-02-07T11:58:14.627Z,3.40
2023-02-07T11:59:15.576Z,3.40
2023-02-07T12:00:14.597Z,3.43
2023-02-07T12:01:14.554Z,3.40
2023-02-07T12:02:14.613Z,3.40
2023-02-07T12:03:14.563Z,3.34
2023-02-07T12:04:14.582Z,3.28
2023-02-07T12:05:14.521Z,3.30
2023-02-07T12:06:14.533Z,3.30
2023-02-07T12:07:14.510Z,3.34
2023-02-07T12:08:14.515Z,3.30
2023-02-07T12:09:14.477Z,3.25
2023-02-07T12:10:14.494Z,3.25
2023-02-07T12:11:14.486Z,3.28
2023-02-07T12:12:14.451Z,3.30
2023-02-07T12:13:14.472Z,3.36
2023-02-07T12:14:14.433Z,3.42
2023-02-07T12:15:14.440Z,3.46
2023-02-07T12:16:14.444Z,3.52
2023-02-07T12:17:14.404Z,3.57
2023-02-07T12:18:14.405Z,3.60
2023-02-07T12:19:14.385Z,3.64
2023-02-07T12:20:14.375Z,3.68
2023-02-07T12:21:14.369Z,3.64
2023-02-07T12:22:14.395Z,3.65
2023-02-07T12:23:40.400Z,3.68
2023-02-07T12:24:15.321Z,3.68
2023-02-07T12:25:14.335Z,3.70
2023-02-07T12:26:14.289Z,3.71
2023-02-07T12:27:14.311Z,3.76
2023-02-07T12:28:14.315Z,3.80
2023-02-07T12:29:14.300Z,3.85
2023-02-07T12:30:14.246Z,3.90
2023-02-07T12:31:14.490Z,3.94
2023-02-07T12:32:14.322Z,3.94
2023-02-07T12:33:14.243Z,4.00
2023-02-07T12:34:14.212Z,4.01
2023-02-07T12:35:14.230Z,4.03
2023-02-07T12:36:14.180Z,4.04
2023-02-07T12:37:14.214Z,4.01
2023-02-07T12:38:14.193Z,3.98
2023-02-07T12:39:14.168Z,4.01
2023-02-07T12:40:14.185Z,4.04
2023-02-07T12:41:14.159Z,4.08
2023-02-07T12:42:15.618Z,4.10
2023-02-07T12:43:14.137Z,4.16
2023-02-07T12:44:14.109Z,4.12
2023-02-07T12:45:14.124Z,4.15
2023-02-07T12:46:14.207Z,4.18
2023-02-07T12:47:14.084Z,4.16
2023-02-07T12:48:14.056Z,4.15
2023-02-07T12:49:14.094Z,4.16
2023-02-07T12:50:14.084Z,4.18
2023-02-07T12:51:14.089Z,4.19
2023-02-07T12:52:14.044Z,4.26
2023-02-07T12:53:14.024Z,4.29
2023-02-07T12:54:13.984Z,4.33
2023-02-07T12:55:14.001Z,4.37
2023-02-07T12:56:13.960Z,4.40
2023-02-07T12:57:13.990Z,4.43
2023-02-07T12:58:13.950Z,4.47
2023-02-07T12:59:13.960Z,4.52
2023-02-07T13:00:14.023Z,4.52
2023-02-07T13:01:14.013Z,4.50
2023-02-07T13:02:13.915Z,4.47
2023-02-07T13:03:14.650Z,4.47
2023-02-07T13:04:13.864Z,4.47
2023-02-07T13:05:13.880Z,4.47
2023-02-07T13:06:13.838Z,4.50
2023-02-07T13:07:13.860Z,4.52
2023-02-07T13:08:13.905Z,4.55
2023-02-07T13:09:14.801Z,4.57
2023-02-07T13:10:13.845Z,4.57
2023-02-07T13:11:13.816Z,4.59